Seboeis Plt, Maine
Current Conditions -  °F | °C
As of 5:53 PM on Saturday 22 Nov 2014 (Local Time) from KBGR Reporting Station
Overcast Overcast  
Wind Chill: 21°   Ceiling: 25000
Heat Index: 30°   Visibility: 10mi
Dew Point: 13°   Wind: 12mph
Humidity: 49%   Direction: 210°SSW
Pressure: 29.97"   Gusts: NA
Location:  45.1976°N, 68.703°W
Report Text: KBGR 222253Z 21010KT 10SM FEW110 OVC250 M01/M11 A2997 RMK AO2 SLP154 T10111106
Loading
Personal Weather Stations






























Interactive Weather Map New forecast layout! Learn more

10-Day Weather Forecast

Advertisements
Track Severe Weather on mobile